createdAt,value
2022-07-27T00:01:25.999Z,0.88
2022-07-27T00:03:52.714Z,0.90
2022-07-27T00:06:21.515Z,0.98
2022-07-27T00:08:48.216Z,1.02
2022-07-27T00:11:14.876Z,0.98
2022-07-27T00:13:41.573Z,1.00
2022-07-27T00:16:08.291Z,1.35
2022-07-27T00:18:34.965Z,0.88
2022-07-27T00:21:01.548Z,1.13
2022-07-27T00:23:28.174Z,0.82
2022-07-27T00:25:54.888Z,0.60
2022-07-27T00:28:21.591Z,0.98
2022-07-27T00:30:48.240Z,1.20
2022-07-27T00:33:17.421Z,1.30
2022-07-27T00:35:44.535Z,0.80
2022-07-27T00:38:11.212Z,0.73
2022-07-27T00:40:37.893Z,0.95
2022-07-27T00:43:04.521Z,1.00
2022-07-27T00:45:31.336Z,0.90
2022-07-27T00:47:58.015Z,0.80
2022-07-27T00:50:24.840Z,0.90
2022-07-27T00:52:51.772Z,1.00
2022-07-27T00:55:18.498Z,0.77
2022-07-27T00:57:58.999Z,0.80
2022-07-27T01:00:27.087Z,1.00
2022-07-27T01:02:53.975Z,0.82
2022-07-27T01:05:20.739Z,0.95
2022-07-27T01:07:47.960Z,0.80
2022-07-27T01:10:14.657Z,0.90
2022-07-27T01:12:41.321Z,0.90
2022-07-27T01:15:08.091Z,0.98
2022-07-27T01:17:35.456Z,1.10
2022-07-27T01:20:02.132Z,1.00
2022-07-27T01:22:28.833Z,0.90
2022-07-27T01:24:55.592Z,0.80
2022-07-27T01:27:22.328Z,0.77
2022-07-27T01:29:48.997Z,0.77
2022-07-27T01:32:15.841Z,0.90
2022-07-27T01:34:42.503Z,1.20
2022-07-27T01:37:09.208Z,1.02
2022-07-27T01:39:35.848Z,0.90
2022-07-27T01:42:02.550Z,0.70
2022-07-27T01:44:29.310Z,0.80
2022-07-27T01:46:56.100Z,0.90
2022-07-27T01:49:22.920Z,0.95
2022-07-27T01:51:49.680Z,0.90
2022-07-27T01:54:16.551Z,0.80
2022-07-27T01:56:43.296Z,0.95
2022-07-27T01:59:15.909Z,0.80
2022-07-27T02:01:43.268Z,0.80
2022-07-27T02:04:10.028Z,1.30
2022-07-27T02:06:36.672Z,0.90
2022-07-27T02:09:03.439Z,0.93
2022-07-27T02:11:48.857Z,1.00
2022-07-27T02:14:16.426Z,0.95
2022-07-27T02:16:43.429Z,0.90
2022-07-27T02:19:11.253Z,1.00
2022-07-27T02:21:38.971Z,0.90
2022-07-27T02:24:06.050Z,1.02
2022-07-27T02:26:32.772Z,0.82
2022-07-27T02:28:59.481Z,0.80
2022-07-27T02:31:26.136Z,0.90
2022-07-27T02:33:59.511Z,0.93
2022-07-27T02:36:29.130Z,1.08
2022-07-27T02:38:56.186Z,1.00
2022-07-27T02:41:23.134Z,1.10
2022-07-27T02:43:49.829Z,0.90
2022-07-27T02:46:16.664Z,0.90
2022-07-27T02:48:43.492Z,0.93
2022-07-27T02:51:10.182Z,1.13
2022-07-27T02:53:36.821Z,0.90
2022-07-27T02:56:03.494Z,0.80
2022-07-27T02:58:30.337Z,0.90
2022-07-27T03:00:58.803Z,0.80
2022-07-27T03:03:36.574Z,0.93
2022-07-27T03:06:03.977Z,0.98
2022-07-27T03:08:30.631Z,0.88
2022-07-27T03:10:57.292Z,0.90
2022-07-27T03:13:24.026Z,0.93
2022-07-27T03:15:50.810Z,0.88
2022-07-27T03:18:18.036Z,1.10
2022-07-27T03:20:44.702Z,1.00
2022-07-27T03:23:11.312Z,1.00
2022-07-27T03:25:38.087Z,0.90
2022-07-27T03:28:04.894Z,0.95
2022-07-27T03:30:32.137Z,1.80
2022-07-27T03:32:58.854Z,0.90
2022-07-27T03:35:25.451Z,1.55
2022-07-27T03:37:52.629Z,1.08
2022-07-27T03:40:19.417Z,1.08
2022-07-27T03:42:46.157Z,0.95
2022-07-27T03:45:12.858Z,1.13
2022-07-27T03:47:39.531Z,1.23
2022-07-27T03:50:06.403Z,1.30
2022-07-27T03:52:33.063Z,0.90
2022-07-27T03:54:59.810Z,1.17
2022-07-27T03:57:26.476Z,0.90
2022-07-27T03:59:53.193Z,1.27
2022-07-27T04:02:19.933Z,1.13
2022-07-27T04:04:46.607Z,1.20
2022-07-27T04:07:13.302Z,1.00
2022-07-27T04:09:40.064Z,1.27
2022-07-27T04:12:08.955Z,1.00
2022-07-27T04:14:35.628Z,1.00
2022-07-27T04:17:02.292Z,1.23
2022-07-27T04:19:29.064Z,1.00
2022-07-27T04:21:55.748Z,1.17
2022-07-27T04:24:22.391Z,1.02
2022-07-27T04:26:49.347Z,1.20
2022-07-27T04:29:20.487Z,1.20
2022-07-27T04:31:47.644Z,1.40
2022-07-27T04:34:14.268Z,1.10
2022-07-27T04:36:41.027Z,1.05
2022-07-27T04:39:07.881Z,1.20
2022-07-27T04:41:34.755Z,1.40
2022-07-27T04:44:01.500Z,1.10
2022-07-27T04:46:29.611Z,1.10
2022-07-27T04:48:56.593Z,1.10
2022-07-27T04:51:23.369Z,1.30
2022-07-27T04:53:53.777Z,1.20
2022-07-27T04:56:25.271Z,1.13
2022-07-27T04:58:51.873Z,1.75
2022-07-27T05:01:18.603Z,1.05
2022-07-27T05:03:45.495Z,1.40
2022-07-27T05:06:12.179Z,1.00
2022-07-27T05:08:38.954Z,1.10
2022-07-27T05:11:05.662Z,1.30
2022-07-27T05:13:32.269Z,1.20
2022-07-27T05:15:58.944Z,1.17
2022-07-27T05:18:25.920Z,1.45
2022-07-27T05:20:52.700Z,1.48
2022-07-27T05:23:19.347Z,1.20
2022-07-27T05:25:46.028Z,1.30
2022-07-27T05:28:13.788Z,1.25
2022-07-27T05:30:40.526Z,1.77
2022-07-27T05:33:07.310Z,1.40
2022-07-27T05:35:34.085Z,1.27
2022-07-27T05:38:00.756Z,1.17
2022-07-27T05:40:27.571Z,1.50
2022-07-27T05:42:54.408Z,1.83
2022-07-27T05:45:21.175Z,1.63
2022-07-27T05:47:47.935Z,1.30
2022-07-27T05:50:15.618Z,1.30
2022-07-27T05:52:43.352Z,1.30
2022-07-27T05:55:10.589Z,1.50
2022-07-27T05:57:37.840Z,1.35
2022-07-27T06:00:06.088Z,1.38
2022-07-27T06:02:38.555Z,1.65
2022-07-27T06:05:05.739Z,1.40
2022-07-27T06:07:50.787Z,1.50
2022-07-27T06:10:17.862Z,1.50
2022-07-27T06:12:45.182Z,1.58
2022-07-27T06:15:12.707Z,1.60
2022-07-27T06:17:39.685Z,1.35
2022-07-27T06:20:07.120Z,1.60
2022-07-27T06:22:33.808Z,1.48
2022-07-27T06:25:00.496Z,1.77
2022-07-27T06:27:29.606Z,1.50
2022-07-27T06:29:56.494Z,1.35
2022-07-27T06:32:23.157Z,1.40
2022-07-27T06:34:50.687Z,1.70
2022-07-27T06:37:17.308Z,1.60
2022-07-27T06:39:46.731Z,1.67
2022-07-27T06:42:16.256Z,1.67
2022-07-27T06:44:42.896Z,1.40
2022-07-27T06:47:09.774Z,1.50
2022-07-27T06:49:36.470Z,1.50
2022-07-27T06:52:03.373Z,1.35
2022-07-27T06:54:30.211Z,1.95
2022-07-27T06:56:56.867Z,1.35
2022-07-27T06:59:23.547Z,1.50
2022-07-27T07:01:50.201Z,1.48
2022-07-27T07:04:16.977Z,1.60
2022-07-27T07:06:50.556Z,1.27
2022-07-27T07:09:17.169Z,1.40
2022-07-27T07:11:43.856Z,1.70
2022-07-27T07:14:10.884Z,1.42
2022-07-27T07:16:37.683Z,1.38
2022-07-27T07:19:05.561Z,1.63
2022-07-27T07:21:32.196Z,1.40
2022-07-27T07:23:58.819Z,1.60
2022-07-27T07:26:25.462Z,1.60
2022-07-27T07:28:52.077Z,1.75
2022-07-27T07:31:20.360Z,1.40
2022-07-27T07:33:47.506Z,1.63
2022-07-27T07:36:15.084Z,1.60
2022-07-27T07:38:42.468Z,1.50
2022-07-27T07:41:10.097Z,1.67
2022-07-27T07:43:38.714Z,1.70
2022-07-27T07:46:05.892Z,1.77
2022-07-27T07:48:32.990Z,1.33
2022-07-27T07:50:59.802Z,1.58
2022-07-27T07:53:26.620Z,1.48
2022-07-27T07:55:56.172Z,1.70
2022-07-27T07:58:22.961Z,1.95
2022-07-27T08:00:49.811Z,1.45
2022-07-27T08:03:17.126Z,1.20
2022-07-27T08:05:43.872Z,1.50
2022-07-27T08:08:10.638Z,2.10
2022-07-27T08:10:37.255Z,1.98
2022-07-27T08:13:04.110Z,1.50
2022-07-27T08:15:35.086Z,1.77
2022-07-27T08:18:07.300Z,1.63
2022-07-27T08:20:34.087Z,1.88
2022-07-27T08:23:01.203Z,1.40
2022-07-27T08:25:27.968Z,1.55
2022-07-27T08:27:56.113Z,1.30
2022-07-27T08:30:23.852Z,1.50
2022-07-27T08:32:52.534Z,1.90
2022-07-27T08:35:19.767Z,1.63
2022-07-27T08:37:46.597Z,1.30
2022-07-27T08:43:01.481Z,1.48
2022-07-27T08:45:30.392Z,1.42
2022-07-27T08:47:57.277Z,1.50
2022-07-27T08:50:24.125Z,1.92
2022-07-27T08:52:54.080Z,1.70
2022-07-27T08:55:21.145Z,1.45
2022-07-27T08:57:47.772Z,1.42
2022-07-27T09:00:14.606Z,1.17
2022-07-27T09:02:42.355Z,1.63
2022-07-27T09:05:09.558Z,1.60
2022-07-27T09:07:36.290Z,1.70
2022-07-27T09:10:03.676Z,1.30
2022-07-27T09:12:31.159Z,1.45
2022-07-27T09:15:11.684Z,1.33
2022-07-27T09:17:54.639Z,1.70
2022-07-27T09:20:21.702Z,1.80
2022-07-27T09:22:52.692Z,1.92
2022-07-27T09:25:38.388Z,1.75
2022-07-27T09:28:08.031Z,1.77
2022-07-27T09:30:41.061Z,1.30
2022-07-27T09:33:07.731Z,1.42
2022-07-27T09:35:35.499Z,1.70
2022-07-27T09:38:22.405Z,1.60
2022-07-27T09:40:58.910Z,1.50
2022-07-27T09:46:12.739Z,1.60
2022-07-27T09:48:39.617Z,1.33
2022-07-27T09:51:55.799Z,1.48
2022-07-27T09:53:58.254Z,1.38
2022-07-27T09:56:29.085Z,1.50
2022-07-27T09:58:57.305Z,1.63
2022-07-27T10:01:26.188Z,1.77
2022-07-27T10:03:55.257Z,1.67
2022-07-27T10:06:22.608Z,1.10
2022-07-27T10:08:53.060Z,1.30
2022-07-27T10:11:20.313Z,1.50
2022-07-27T10:13:47.763Z,1.40
2022-07-27T10:16:18.974Z,1.30
2022-07-27T10:18:50.751Z,1.55
2022-07-27T10:21:23.282Z,1.60
2022-07-27T10:24:22.546Z,1.10
2022-07-27T10:26:49.307Z,1.20
2022-07-27T10:29:17.754Z,1.42
2022-07-27T10:31:53.365Z,1.50
2022-07-27T10:34:38.995Z,1.38
2022-07-27T10:37:10.041Z,1.40
2022-07-27T10:39:41.045Z,1.67
2022-07-27T10:42:17.975Z,1.50
2022-07-27T10:44:53.668Z,1.58
2022-07-27T10:47:28.504Z,1.20
2022-07-27T10:50:13.716Z,1.00
2022-07-27T10:52:41.618Z,1.50
2022-07-27T10:55:09.001Z,1.20
2022-07-27T10:57:36.546Z,1.30
2022-07-27T11:00:13.568Z,1.15
2022-07-27T11:02:44.552Z,1.20
2022-07-27T11:05:32.789Z,1.35
2022-07-27T11:08:35.454Z,1.40
2022-07-27T11:10:45.884Z,1.45
2022-07-27T11:13:12.844Z,1.33
2022-07-27T11:15:39.684Z,1.27
2022-07-27T11:18:06.420Z,1.23
2022-07-27T11:20:33.151Z,1.15
2022-07-27T11:23:48.639Z,1.30
2022-07-27T11:26:02.180Z,1.42
2022-07-27T11:28:29.844Z,1.42
2022-07-27T11:30:57.332Z,1.50
2022-07-27T11:33:24.424Z,1.40
2022-07-27T11:35:54.836Z,1.40
2022-07-27T11:38:21.545Z,1.15
2022-07-27T11:41:06.659Z,1.15
2022-07-27T11:43:42.016Z,1.20
2022-07-27T11:46:15.622Z,1.20
2022-07-27T11:49:06.195Z,1.17
2022-07-27T11:51:42.318Z,1.20
2022-07-27T11:54:10.314Z,1.20
2022-07-27T11:56:39.254Z,1.23
2022-07-27T11:59:07.896Z,1.25
2022-07-27T12:01:36.386Z,1.02
2022-07-27T12:04:08.147Z,1.30
2022-07-27T12:06:35.386Z,1.00
2022-07-27T12:09:03.308Z,1.20
2022-07-27T12:11:54.186Z,1.10
2022-07-27T12:14:28.558Z,1.48
2022-07-27T12:17:06.917Z,1.30
2022-07-27T12:19:33.754Z,1.17
2022-07-27T12:22:01.213Z,1.27
2022-07-27T12:24:33.835Z,1.27
2022-07-27T12:27:06.558Z,1.40
2022-07-27T12:29:33.946Z,1.55
2022-07-27T12:32:04.154Z,1.17
2022-07-27T12:34:34.723Z,1.30
2022-07-27T12:37:02.191Z,0.98
2022-07-27T12:39:29.321Z,1.17
2022-07-27T12:42:06.335Z,1.20
2022-07-27T12:44:34.292Z,1.00
2022-07-27T12:47:02.310Z,1.23
2022-07-27T12:49:34.524Z,1.20
2022-07-27T12:52:08.340Z,1.00
2022-07-27T12:54:35.278Z,1.50
2022-07-27T12:57:02.554Z,1.25
2022-07-27T12:59:29.253Z,1.27
2022-07-27T13:01:56.918Z,0.90
2022-07-27T13:04:25.599Z,1.30
2022-07-27T13:06:52.246Z,1.10
2022-07-27T13:09:19.008Z,1.40
2022-07-27T13:11:48.070Z,1.30
2022-07-27T13:14:15.211Z,1.20
2022-07-27T13:16:41.977Z,1.20
2022-07-27T13:19:08.833Z,1.15
2022-07-27T13:21:35.697Z,1.10
2022-07-27T13:24:02.855Z,1.20
2022-07-27T13:26:29.486Z,1.20
2022-07-27T13:28:57.406Z,1.33
2022-07-27T13:31:24.092Z,1.20
2022-07-27T13:33:50.795Z,1.30
2022-07-27T13:36:17.657Z,1.00
2022-07-27T13:38:44.286Z,1.33
2022-07-27T13:41:11.642Z,1.02
2022-07-27T13:43:38.339Z,1.23
2022-07-27T13:46:05.137Z,1.20
2022-07-27T13:48:32.606Z,1.05
2022-07-27T13:50:59.319Z,1.10
2022-07-27T13:53:26.135Z,1.10
2022-07-27T13:55:52.814Z,1.20
2022-07-27T13:58:19.882Z,1.00
2022-07-27T14:00:46.896Z,1.20
2022-07-27T14:03:13.627Z,1.25
2022-07-27T14:05:45.422Z,1.00
2022-07-27T14:08:18.979Z,0.98
2022-07-27T14:10:45.747Z,1.15
2022-07-27T14:13:13.607Z,1.00
2022-07-27T14:15:54.327Z,0.90
2022-07-27T14:18:22.431Z,1.10
2022-07-27T14:20:49.504Z,1.20
2022-07-27T14:23:16.198Z,1.10
2022-07-27T14:25:42.936Z,1.00
2022-07-27T14:28:09.543Z,1.10
2022-07-27T14:30:36.140Z,1.40
2022-07-27T14:33:03.167Z,1.10
2022-07-27T14:35:29.873Z,0.93
2022-07-27T14:37:58.399Z,1.00
2022-07-27T14:40:25.762Z,0.90
2022-07-27T14:42:52.408Z,1.10
2022-07-27T14:45:19.944Z,1.00
2022-07-27T14:47:47.238Z,1.25
2022-07-27T14:50:15.024Z,0.93
2022-07-27T14:52:41.823Z,1.17
2022-07-27T14:55:09.426Z,1.40
2022-07-27T14:57:36.959Z,1.10
2022-07-27T15:00:14.399Z,1.20
2022-07-27T15:02:42.455Z,1.10
2022-07-27T15:05:09.667Z,1.10
2022-07-27T15:07:36.751Z,1.50
2022-07-27T15:10:04.368Z,1.00
2022-07-27T15:12:33.756Z,1.60
2022-07-27T15:15:04.853Z,1.25
2022-07-27T15:17:31.611Z,1.20
2022-07-27T15:20:05.769Z,0.90
2022-07-27T15:22:32.531Z,1.20
2022-07-27T15:24:59.245Z,1.17
2022-07-27T15:27:25.922Z,1.15
2022-07-27T15:29:52.593Z,1.20
2022-07-27T15:32:19.202Z,1.38
2022-07-27T15:34:46.303Z,1.23
2022-07-27T15:37:13.155Z,1.10
2022-07-27T15:39:40.664Z,1.25
2022-07-27T15:42:08.185Z,1.10
2022-07-27T15:44:35.655Z,1.05
2022-07-27T15:47:02.744Z,1.20
2022-07-27T15:49:29.746Z,1.13
2022-07-27T15:51:56.443Z,1.10
2022-07-27T15:54:24.153Z,1.20
2022-07-27T15:56:51.022Z,1.10
2022-07-27T15:59:17.657Z,1.23
2022-07-27T16:01:45.511Z,1.08
2022-07-27T16:04:14.031Z,0.90
2022-07-27T16:06:40.764Z,1.00
2022-07-27T16:09:09.514Z,1.30
2022-07-27T16:11:36.898Z,1.52
2022-07-27T16:14:03.747Z,1.23
2022-07-27T16:16:30.680Z,1.52
2022-07-27T16:18:58.250Z,1.40
2022-07-27T16:21:25.475Z,1.00
2022-07-27T16:23:53.272Z,1.40
2022-07-27T16:26:21.318Z,1.10
2022-07-27T16:28:49.103Z,1.13
2022-07-27T16:31:16.645Z,1.00
2022-07-27T16:33:45.377Z,1.00
2022-07-27T16:36:12.569Z,1.10
2022-07-27T16:38:47.621Z,1.30
2022-07-27T16:41:17.394Z,1.00
2022-07-27T16:43:44.254Z,1.23
2022-07-27T16:46:11.010Z,1.20
2022-07-27T16:48:42.278Z,1.10
2022-07-27T16:51:11.019Z,1.48
2022-07-27T16:53:41.428Z,1.35
2022-07-27T16:56:08.961Z,1.23
2022-07-27T16:58:36.132Z,1.08
2022-07-27T17:01:02.894Z,1.08
2022-07-27T17:03:29.620Z,0.90
2022-07-27T17:05:56.399Z,1.10
2022-07-27T17:08:27.785Z,1.45
2022-07-27T17:10:57.739Z,1.02
2022-07-27T17:13:30.649Z,1.13
2022-07-27T17:16:02.006Z,1.13
2022-07-27T17:18:28.660Z,1.13
2022-07-27T17:20:59.586Z,1.13
2022-07-27T17:23:26.425Z,1.20
2022-07-27T17:25:53.362Z,1.63
2022-07-27T17:28:20.926Z,1.40
2022-07-27T17:30:47.595Z,1.55
2022-07-27T17:33:14.277Z,1.40
2022-07-27T17:35:40.984Z,1.65
2022-07-27T17:38:13.867Z,2.00
2022-07-27T17:40:40.538Z,1.52
2022-07-27T17:43:07.287Z,1.20
2022-07-27T17:45:34.004Z,1.20
2022-07-27T17:48:00.717Z,1.30
2022-07-27T17:50:27.389Z,1.30
2022-07-27T17:52:56.894Z,1.52
2022-07-27T17:55:23.836Z,1.40
2022-07-27T17:57:50.499Z,1.15
2022-07-27T18:00:17.235Z,1.20
2022-07-27T18:02:43.918Z,1.30
2022-07-27T18:05:10.660Z,1.13
2022-07-27T18:07:40.396Z,1.00
2022-07-27T18:10:07.853Z,1.65
2022-07-27T18:12:35.529Z,1.67
2022-07-27T18:15:28.314Z,1.55
2022-07-27T18:17:55.104Z,1.27
2022-07-27T18:20:21.797Z,1.40
2022-07-27T18:22:48.537Z,1.27
2022-07-27T18:25:15.204Z,1.30
2022-07-27T18:27:42.989Z,1.33
2022-07-27T18:30:09.988Z,1.10
2022-07-27T18:32:37.061Z,2.10
2022-07-27T18:35:04.525Z,1.52
2022-07-27T18:37:31.212Z,1.58
2022-07-27T18:39:57.851Z,1.50
2022-07-27T18:42:24.603Z,1.50
2022-07-27T18:44:51.369Z,1.20
2022-07-27T18:47:18.123Z,1.30
2022-07-27T18:49:44.892Z,1.10
2022-07-27T18:52:11.563Z,1.10
2022-07-27T18:54:38.284Z,1.40
2022-07-27T18:57:04.947Z,1.30
2022-07-27T18:59:31.772Z,1.02
2022-07-27T19:01:58.612Z,1.75
2022-07-27T19:04:25.381Z,1.40
2022-07-27T19:06:52.791Z,1.38
2022-07-27T19:09:19.552Z,1.35
2022-07-27T19:11:46.264Z,1.42
2022-07-27T19:14:12.954Z,1.27
2022-07-27T19:16:39.656Z,1.80
2022-07-27T19:19:10.292Z,1.63
2022-07-27T19:21:40.992Z,1.38
2022-07-27T19:24:07.747Z,1.95
2022-07-27T19:26:34.495Z,1.90
2022-07-27T19:29:01.179Z,1.80
2022-07-27T19:31:28.375Z,1.83
2022-07-27T19:33:56.256Z,1.90
2022-07-27T19:36:23.340Z,1.92
2022-07-27T19:38:50.467Z,1.58
2022-07-27T19:41:17.393Z,1.75
2022-07-27T19:43:44.223Z,1.80
2022-07-27T19:46:11.008Z,1.63
2022-07-27T19:48:37.738Z,1.60
2022-07-27T19:51:07.048Z,1.70
2022-07-27T19:53:35.552Z,1.60
2022-07-27T19:56:02.786Z,1.92
2022-07-27T19:58:29.738Z,1.70
2022-07-27T20:00:56.578Z,1.80
2022-07-27T20:03:23.343Z,1.75
2022-07-27T20:05:50.359Z,1.33
2022-07-27T20:08:17.702Z,1.60
2022-07-27T20:10:44.338Z,1.50
2022-07-27T20:13:10.954Z,1.60
2022-07-27T20:15:37.668Z,1.67
2022-07-27T20:18:04.663Z,1.50
2022-07-27T20:20:31.405Z,1.85
2022-07-27T20:22:58.552Z,1.70
2022-07-27T20:25:25.303Z,1.95
2022-07-27T20:27:52.161Z,1.52
2022-07-27T20:30:20.050Z,1.45
2022-07-27T20:32:49.702Z,1.73
2022-07-27T20:35:16.531Z,2.15
2022-07-27T20:37:44.090Z,1.50
2022-07-27T20:40:11.866Z,1.65
2022-07-27T20:42:40.307Z,1.90
2022-07-27T20:45:10.071Z,1.92
2022-07-27T20:47:38.204Z,1.90
2022-07-27T20:50:06.791Z,1.90
2022-07-27T20:52:33.479Z,1.88
2022-07-27T20:55:00.091Z,1.70
2022-07-27T20:57:26.924Z,1.70
2022-07-27T20:59:53.656Z,1.65
2022-07-27T21:02:20.787Z,2.15
2022-07-27T21:04:47.552Z,1.80
2022-07-27T21:07:17.716Z,1.40
2022-07-27T21:09:44.452Z,1.77
2022-07-27T21:12:11.111Z,1.80
2022-07-27T21:14:37.824Z,1.65
2022-07-27T21:17:04.935Z,1.75
2022-07-27T21:19:31.629Z,1.92
2022-07-27T21:21:58.305Z,1.60
2022-07-27T21:24:26.089Z,2.15
2022-07-27T21:26:53.159Z,2.08
2022-07-27T21:29:20.599Z,1.55
2022-07-27T21:31:49.000Z,1.50
2022-07-27T21:34:17.104Z,1.52
2022-07-27T21:36:44.198Z,1.98
2022-07-27T21:39:10.945Z,1.63
2022-07-27T21:41:38.647Z,1.60
2022-07-27T21:44:05.553Z,1.50
2022-07-27T21:46:32.272Z,1.52
2022-07-27T21:48:59.071Z,1.70
2022-07-27T21:51:25.793Z,1.50
2022-07-27T21:53:52.490Z,1.70
2022-07-27T21:56:19.459Z,1.70
2022-07-27T21:58:46.184Z,1.60
2022-07-27T22:01:13.181Z,1.75
2022-07-27T22:03:41.359Z,1.75
2022-07-27T22:06:09.878Z,1.67
2022-07-27T22:08:36.617Z,1.65
2022-07-27T22:11:03.353Z,1.48
2022-07-27T22:13:30.098Z,1.60
2022-07-27T22:15:56.735Z,1.73
2022-07-27T22:18:23.497Z,1.60
2022-07-27T22:20:50.207Z,1.65
2022-07-27T22:23:17.101Z,1.85
2022-07-27T22:25:43.870Z,1.60
2022-07-27T22:28:10.502Z,1.65
2022-07-27T22:30:37.265Z,1.70
2022-07-27T22:33:03.970Z,1.40
2022-07-27T22:35:30.642Z,1.52
2022-07-27T22:37:57.457Z,1.60
2022-07-27T22:40:24.577Z,1.30
2022-07-27T22:42:51.312Z,1.35
2022-07-27T22:45:18.207Z,1.77
2022-07-27T22:47:44.896Z,1.40
2022-07-27T22:50:18.216Z,1.40
2022-07-27T22:52:45.201Z,1.40
2022-07-27T22:55:11.787Z,1.55
2022-07-27T22:57:38.481Z,1.52
2022-07-27T23:00:06.394Z,1.55
2022-07-27T23:02:34.513Z,1.50
2022-07-27T23:05:01.366Z,1.50
2022-07-27T23:07:28.070Z,1.42
2022-07-27T23:09:57.172Z,1.45
2022-07-27T23:12:24.240Z,1.30
2022-07-27T23:14:51.012Z,1.58
2022-07-27T23:17:18.118Z,1.40
2022-07-27T23:19:44.775Z,1.50
2022-07-27T23:22:11.785Z,1.58
2022-07-27T23:24:40.120Z,1.80
2022-07-27T23:27:07.875Z,1.63
2022-07-27T23:29:34.517Z,1.40
2022-07-27T23:32:02.966Z,1.40
2022-07-27T23:34:29.686Z,1.40
2022-07-27T23:36:56.473Z,1.50
2022-07-27T23:39:23.111Z,1.55
2022-07-27T23:41:50.327Z,1.88
2022-07-27T23:44:17.488Z,1.33
2022-07-27T23:46:44.340Z,1.58
2022-07-27T23:49:11.456Z,1.60
2022-07-27T23:51:38.163Z,1.58
2022-07-27T23:54:05.145Z,1.33
2022-07-27T23:56:31.899Z,1.60
2022-07-27T23:58:58.599Z,1.58
